• Join FlightAware (Why Join?)
  • Login
  • US Flag 
01:29PM EST


 

Airport Tracker/Info


-or-


 

Live Flight TrackerFlight Track Log ✈ UAL33 ✈ 15-Mar-2014 ✈ RJAA / NRT - KLAX

Flight Track Log - Related Links

Times and Time Zones

All times are in EDT time to prevent confusion due to time zone crossing. See the UAL33 flight status page for this flight to view local times or setup timezone preferences in your user account.

Time Position Orientation Groundspeed Altitude Reporting Facility
EDT Latitude Longitude Course Direction KTS MPH feet Rate Location/Type
05:58AM 35.7126 140.4131 149° Southeast 173 199 2,300  Level FlightAware ADS-B
05:58AM 35.7004 140.4217 150° Southeast 185 213 3,000 1,560 Climbing FlightAware ADS-B
05:59AM 35.6634 140.4482 150° Southeast 240 276 3,900 1,380 Climbing FlightAware ADS-B
05:59AM 35.6431 140.4630 148° Southeast 251 289 4,500 2,160 Climbing FlightAware ADS-B
06:00AM 35.6219 140.4783 149° Southeast 267 307 5,400 2,700 Climbing FlightAware ADS-B
06:00AM 35.6007 140.4935 149° Southeast 266 306 6,300 2,820 Climbing FlightAware ADS-B
06:01AM 35.5775 140.5102 149° Southeast 269 310 7,300 2,280 Climbing FlightAware ADS-B
06:01AM 35.5728 140.5136 149° Southeast 278 320 7,600 2,820 Climbing FlightAware ADS-B (RJTF)
06:01AM 35.5559 140.5258 150° Southeast 281 323 8,200 2,400 Climbing FlightAware ADS-B
06:01AM 35.5478 140.5316 149° Southeast 284 327 8,500 2,280 Climbing FlightAware ADS-B (RJTF)
06:01AM 35.5312 140.5435 149° Southeast 283 326 9,000 1,980 Climbing FlightAware ADS-B
06:02AM 35.5148 140.5553 147° Southeast 299 344 9,500 1,800 Climbing FlightAware ADS-B (RJTF)
06:02AM 35.4889 140.5849 132° Southeast 315 362 10,200 1,440 Climbing FlightAware ADS-B
06:02AM 35.4821 140.5939 132° Southeast 328 377 10,200 900 Level FlightAware ADS-B (RJTF)
06:02AM 35.4518 140.6485 114° Southeast 365 420 10,800 2,160 Climbing FlightAware ADS-B
06:03AM 35.4370 140.7325 91° East 378 435 12,600 2,340 Climbing FlightAware ADS-B
06:04AM 35.4384 140.7572 82° East 380 437 13,200 2,280 Climbing FlightAware ADS-B (RJTF)
06:04AM 35.4538 140.8594 81° East 394 453 14,900 2,340 Climbing FlightAware ADS-B
06:04AM 35.4517 140.8450 79° East 394 453 14,900 1,800 Level FlightAware ADS-B (RJTF)
06:05AM 35.4685 140.9488 76° East 404 465 16,100 2,160 Climbing FlightAware ADS-B
06:05AM 35.4960 141.0330 64° Northeast 407 468 17,700 2,220 Climbing FlightAware ADS-B
06:06AM 35.5303 141.1196 65° Northeast 418 481 19,100 1,920 Climbing FlightAware ADS-B
06:07AM 35.5821 141.2512 64° Northeast 442 509 20,900 1,860 Climbing FlightAware ADS-B
06:08AM 35.6178 141.3429 64° Northeast 454 522 22,200 1,800 Climbing FlightAware ADS-B
06:08AM 35.6537 141.4344 65° Northeast 461 531 23,300 1,620 Climbing FlightAware ADS-B
06:09AM 35.6914 141.5314 66° East 473 544 24,400 1,620 Climbing FlightAware ADS-B
06:10AM 35.7300 141.6309 65° Northeast 488 562 25,500 1,560 Climbing FlightAware ADS-B
06:10AM 35.7693 141.7326 65° Northeast 498 573 26,500 1,500 Climbing FlightAware ADS-B
06:11AM 35.8076 141.8321 66° East 502 578 27,500 1,440 Climbing FlightAware ADS-B
06:12AM 35.8498 141.9414 66° East 511 588 28,500 1,200 Climbing FlightAware ADS-B
06:13AM 35.9322 142.1568 65° Northeast 535 616 30,000 1,080 Climbing FlightAware ADS-B
06:14AM 35.9757 142.2710 66° East 541 623 30,700 1,140 Climbing FlightAware ADS-B
06:16AM 36.1418 142.7116 66° East 560 644 33,800 60 Climbing FlightAware ADS-B
06:17AM 36.1788 142.6447 57° Northeast  Level Estimated
06:19AM 36.3072 143.0320 57° Northeast  Level Estimated
06:20AM 36.3857 143.1851 57° Northeast  Level Estimated
06:21AM 36.4639 143.3384 58° Northeast  Level Estimated
06:22AM 36.5420 143.4921 58° Northeast  Level Estimated
06:23AM 36.6199 143.6460 58° Northeast  Level Estimated
06:24AM 36.6975 143.8003 58° Northeast  Level Estimated
06:25AM 36.7750 143.9549 58° Northeast  Level Estimated
06:26AM 36.8523 144.1098 58° Northeast  Level Estimated
06:27AM 36.9294 144.2650 58° Northeast  Level Estimated
06:28AM 37.0062 144.4206 58° Northeast  Level Estimated
06:29AM 37.0829 144.5764 58° Northeast  Level Estimated
06:30AM 37.1593 144.7326 58° Northeast  Level Estimated
06:31AM 37.2356 144.8891 58° Northeast  Level Estimated
06:32AM 37.3116 145.0459 59° Northeast  Level Estimated
06:33AM 37.3875 145.2030 59° Northeast  Level Estimated
06:34AM 37.4631 145.3604 59° Northeast  Level Estimated
06:35AM 37.5395 145.5202 59° Northeast  Level Estimated
06:36AM 37.6157 145.6803 59° Northeast  Level Estimated
06:37AM 37.6917 145.8408 59° Northeast  Level Estimated
06:38AM 37.7674 146.0016 59° Northeast  Level Estimated
06:39AM 37.8430 146.1627 59° Northeast  Level Estimated
06:40AM 37.9183 146.3241 59° Northeast  Level Estimated
06:41AM 37.9934 146.4859 59° Northeast  Level Estimated
06:42AM 38.0683 146.6480 60° Northeast  Level Estimated
06:43AM 38.1429 146.8105 60° Northeast  Level Estimated
06:44AM 38.2173 146.9732 60° Northeast  Level Estimated
06:45AM 38.2915 147.1364 60° Northeast  Level Estimated
06:46AM 38.3655 147.2998 60° Northeast  Level Estimated
06:47AM 38.4393 147.4636 60° Northeast  Level Estimated
06:48AM 38.5128 147.6277 60° Northeast  Level Estimated
06:49AM 38.5861 147.7921 60° Northeast  Level Estimated
06:50AM 38.6591 147.9569 60° Northeast  Level Estimated
06:51AM 38.7319 148.1220 60° Northeast  Level Estimated
06:52AM 38.8046 148.2875 61° Northeast  Level Estimated
06:53AM 38.8769 148.4532 61° Northeast  Level Estimated
06:54AM 38.9490 148.6194 61° Northeast  Level Estimated
06:55AM 39.0209 148.7858 61° Northeast  Level Estimated
06:56AM 39.0926 148.9526 61° Northeast  Level Estimated
06:57AM 39.1641 149.1201 61° Northeast  Level Estimated
06:58AM 39.2354 149.2879 61° Northeast  Level Estimated
06:59AM 39.3065 149.4560 61° Northeast  Level Estimated
07:00AM 39.3773 149.6245 61° Northeast  Level Estimated
07:01AM 39.4479 149.7933 62° Northeast  Level Estimated
07:02AM 39.5182 149.9625 62° Northeast  Level Estimated
07:03AM 39.5883 150.1320 62° Northeast  Level Estimated
07:04AM 39.6582 150.3018 62° Northeast  Level Estimated
07:05AM 39.7278 150.4720 62° Northeast  Level Estimated
07:06AM 39.7971 150.6425 62° Northeast  Level Estimated
07:07AM 39.8662 150.8134 62° Northeast  Level Estimated
07:08AM 39.9351 150.9846 62° Northeast  Level Estimated
07:09AM 40.0036 151.1562 62° Northeast  Level Estimated
07:10AM 40.0720 151.3281 63° Northeast  Level Estimated
07:11AM 40.1401 151.5003 63° Northeast  Level Estimated
07:12AM 40.2079 151.6729 63° Northeast  Level Estimated
07:13AM 40.2755 151.8459 63° Northeast  Level Estimated
07:14AM 40.3428 152.0191 63° Northeast  Level Estimated
07:15AM 40.4098 152.1928 63° Northeast  Level Estimated
07:16AM 40.4766 152.3668 63° Northeast  Level Estimated
07:17AM 40.5432 152.5411 63° Northeast  Level Estimated
07:18AM 40.6094 152.7157 63° Northeast  Level Estimated
07:19AM 40.6754 152.8908 64° Northeast  Level Estimated
07:20AM 40.7412 153.0661 64° Northeast  Level Estimated
07:21AM 40.8067 153.2418 64° Northeast  Level Estimated
07:22AM 40.8719 153.4179 64° Northeast  Level Estimated
07:23AM 40.9368 153.5943 64° Northeast  Level Estimated
07:24AM 41.0015 153.7710 64° Northeast  Level Estimated
07:25AM 41.0659 153.9481 64° Northeast  Level Estimated
07:26AM 41.1300 154.1256 64° Northeast  Level Estimated
07:27AM 41.1939 154.3034 64° Northeast  Level Estimated
07:28AM 41.2575 154.4815 65° Northeast  Level Estimated
07:29AM 41.3208 154.6600 65° Northeast  Level Estimated
07:30AM 41.3838 154.8388 65° Northeast  Level Estimated
07:31AM 41.4465 155.0180 65° Northeast  Level Estimated
07:32AM 41.5090 155.1975 65° Northeast  Level Estimated
07:33AM 41.5712 155.3773 65° Northeast  Level Estimated
07:34AM 41.6331 155.5576 65° Northeast  Level Estimated
07:35AM 41.6948 155.7381 65° Northeast  Level Estimated
07:36AM 41.7561 155.9190 66° East  Level Estimated
07:37AM 41.8172 156.1003 66° East  Level Estimated
07:38AM 41.8780 156.2818 66° East  Level Estimated
07:39AM 41.9385 156.4638 66° East  Level Estimated
07:40AM 41.9987 156.6461 66° East  Level Estimated
07:41AM 42.0586 156.8287 66° East  Level Estimated
07:42AM 42.1182 157.0117 66° East  Level Estimated
07:43AM 42.1775 157.1950 66° East  Level Estimated
07:44AM 42.2366 157.3786 66° East  Level Estimated
07:45AM 42.2953 157.5626 67° East  Level Estimated
07:46AM 42.3538 157.7470 67° East  Level Estimated
07:47AM 42.4119 157.9317 67° East  Level Estimated
07:48AM 42.4698 158.1167 67° East  Level Estimated
07:49AM 42.5274 158.3021 67° East  Level Estimated
07:50AM 42.5846 158.4878 67° East  Level Estimated
07:51AM 42.6416 158.6738 67° East  Level Estimated
07:52AM 42.6983 158.8602 67° East  Level Estimated
07:53AM 42.7546 159.0469 68° East  Level Estimated
07:54AM 42.8107 159.2340 68° East  Level Estimated
07:55AM 42.8664 159.4214 68° East  Level Estimated
07:56AM 42.9219 159.6092 68° East  Level Estimated
07:57AM 42.9770 159.7972 68° East  Level Estimated
07:58AM 43.0318 159.9857 68° East  Level Estimated
07:59AM 43.0864 160.1744 68° East  Level Estimated
08:00AM 43.1406 160.3635 68° East  Level Estimated
08:01AM 43.1945 160.5529 69° East  Level Estimated
08:02AM 43.2481 160.7427 69° East  Level Estimated
08:03AM 43.3013 160.9328 69° East  Level Estimated
08:04AM 43.3543 161.1232 69° East  Level Estimated
08:05AM 43.4069 161.3140 69° East  Level Estimated
08:06AM 43.4592 161.5051 69° East  Level Estimated
08:07AM 43.5112 161.6965 69° East  Level Estimated
08:08AM 43.5629 161.8882 70° East  Level Estimated
08:09AM 43.6143 162.0803 70° East  Level Estimated
08:10AM 43.6653 162.2727 70° East  Level Estimated
08:11AM 43.7160 162.4654 70° East  Level Estimated
08:12AM 43.7664 162.6585 70° East  Level Estimated
08:13AM 43.8165 162.8519 70° East  Level Estimated
08:14AM 43.8662 163.0455 70° East  Level Estimated
08:15AM 43.9156 163.2396 70° East  Level Estimated
08:16AM 43.9647 163.4339 71° East  Level Estimated
08:17AM 44.0135 163.6286 71° East  Level Estimated
08:18AM 44.0619 163.8236 71° East  Level Estimated
08:19AM 44.1100 164.0189 71° East  Level Estimated
08:20AM 44.1577 164.2145 71° East  Level Estimated
08:21AM 44.2052 164.4104 71° East  Level Estimated
08:21AM 44.0000 167.1500 63° Northeast 604 695 39,000  Level Oakland Oceanic (ODAPS)
08:35AM 45.0000 170.0000 63° Northeast 597 687 39,000  Level Oakland Oceanic (ODAPS)
08:35AM 45.0333 170.0833 63° Northeast 597 687 39,000  Level Oakland Oceanic (ODAPS)
08:49AM 46.0667 173.1167 65° Northeast 602 693 39,000  Level Oakland Oceanic (ODAPS)
09:02AM 47.0167 176.2333 67° East 600 690 39,000  Level Oakland Oceanic (ODAPS)
09:16AM 47.8500 179.3667 70° East 582 670 39,000  Level Oakland Oceanic (ODAPS)
09:19AM 48.0000 180.0000 86° East 570 656 40,000 60 Climbing Oakland Oceanic (ODAPS)
09:30AM 48.0833 -177.4167 88° East 563 648 40,000  Level Oakland Oceanic (ODAPS)
09:44AM 48.1000 -174.2000 90° East 553 636 40,000  Level Oakland Oceanic (ODAPS)
09:58AM 48.0333 -171.0500 92° East 540 621 40,000  Level Oakland Oceanic (ODAPS)
10:03AM 48.0000 -170.0000 103° East 546 628 40,000  Level Oakland Oceanic (ODAPS)
10:12AM 47.6833 -167.9833 104° East 542 624 40,000  Level Oakland Oceanic (ODAPS)
10:26AM 47.1500 -165.0667 106° East 539 620 40,000  Level Oakland Oceanic (ODAPS)
10:40AM 46.5333 -162.2167 108° East 531 611 40,000  Level Oakland Oceanic (ODAPS)
10:51AM 46.0000 -160.0000 102° East 527 606 40,000  Level Oakland Oceanic (ODAPS)
10:53AM 45.9167 -159.4167 103° East 531 611 40,000  Level Oakland Oceanic (ODAPS)
11:07AM 45.4333 -156.6000 105° East 525 604 40,000  Level Oakland Oceanic (ODAPS)
11:21AM 44.9000 -153.8500 107° East 519 597 40,000  Level Oakland Oceanic (ODAPS)
11:35AM 44.3000 -151.2000 109° East 516 594 40,000  Level Oakland Oceanic (ODAPS)
11:42AM 44.0000 -150.0000 94° East 539 620 40,000  Level Oakland Oceanic (ODAPS)
11:49AM 43.9167 -148.5167 95° East 543 625 40,000  Level Oakland Oceanic (ODAPS)
12:03PM 43.6833 -145.7167 97° East 542 624 41,000  Climbing Oakland Oceanic (ODAPS)
12:17PM 43.3833 -142.9167 99° East 548 631 41,000  Level Oakland Oceanic (ODAPS)
12:30PM 43.0167 -140.0667 109° East 548 631 41,000  Level Oakland Oceanic (ODAPS)
12:31PM 43.0000 -140.0000 102° East 548 631 41,000  Level FlightAware Transoceanic
12:31PM 43.0000 -140.0000 102° East 557 641 41,000  Level Oakland Oceanic (ODAPS)
12:44PM 42.5500 -137.2500 104° East 561 646 41,000  Level Oakland Oceanic (ODAPS)
12:58PM 42.0167 -134.4667 105° East 560 644 41,000  Level Oakland Oceanic (ODAPS)
01:12PM 41.4000 -131.6667 107° East 575 662 41,000  Level Oakland Oceanic (ODAPS)
01:20PM 41.0000 -130.0000 106° East 577 664 41,000  Level Oakland Oceanic (ODAPS)
01:26PM 40.7500 -128.8667 107° East 574 661 41,000  Level Oakland Oceanic (ODAPS)
01:33PM 40.4167 -127.4833 107° East 575 662 41,000 -60 Level Oakland Oceanic (ODAPS)
01:35PM 40.3081 -127.0233 113° Southeast 571 657 40,900  Descending Oakland Center
01:36PM 40.3000 -127.0000 112° Southeast 574 661 41,000 60 Climbing FlightAware Transoceanic
01:36PM 40.2511 -126.8311 111° Southeast 565 650 41,000  Level Oakland Center
01:37PM 40.2404 -126.8101 112° Southeast 574 661 41,000 -120 Level FlightAware Transoceanic
01:37PM 40.1706 -126.6558 121° Southeast 571 657 40,900  Descending Oakland Center
01:38PM 40.1804 -126.6206 113° Southeast 574 661 41,000 60 Climbing FlightAware Transoceanic
01:38PM 40.0722 -126.4994 129° Southeast 566 651 41,000  Level Oakland Center
01:39PM 40.1202 -126.4314 113° Southeast 575 662 41,000 -120 Level FlightAware Transoceanic
01:39PM 39.9747 -126.3433 129° Southeast 561 646 40,900  Descending Oakland Center
01:40PM 40.0596 -126.2425 113° Southeast 575 662 41,000 60 Climbing FlightAware Transoceanic
01:40PM 39.8769 -126.1858 129° Southeast 560 644 41,000  Level Oakland Center
01:41PM 39.9988 -126.0540 113° Southeast 575 662 41,000  Level FlightAware Transoceanic
01:41PM 39.7778 -126.0303 130° Southeast 561 646 41,000  Level Oakland Center
01:42PM 39.6603 -125.8433 129° Southeast 560 644 41,000  Level Oakland Center
01:48PM 39.1218 -125.0021 129° Southeast 558 642 41,000  Level FlightAware ADS-B
01:49PM 39.0820 -124.9410 129° Southeast 558 642 41,000  Level FlightAware ADS-B
01:49PM 38.9615 -124.7560 129° Southeast 559 643 41,000  Level FlightAware ADS-B
01:50PM 38.9213 -124.6946 129° Southeast 559 643 41,000  Level FlightAware ADS-B
01:50PM 38.8495 -124.5853 130° Southeast 558 642 41,000  Level FlightAware ADS-B
01:52PM 38.7441 -124.4254 130° Southeast 557 641 41,000  Level FlightAware ADS-B
01:52PM 38.6767 -124.3234 130° Southeast 556 640 41,000  Level FlightAware ADS-B
01:53PM 38.6122 -124.2263 130° Southeast 555 639 41,000  Level FlightAware ADS-B
01:54PM 38.5438 -124.1237 130° Southeast 553 636 41,000  Level FlightAware ADS-B
01:54PM 38.4806 -124.0289 130° Southeast 551 634 41,000  Level FlightAware ADS-B
01:55PM 38.4109 -123.9248 130° Southeast 550 633 41,000  Level FlightAware ADS-B
01:56PM 38.3462 -123.8267 129° Southeast 549 632 41,000  Level FlightAware ADS-B
01:56PM 38.2979 -123.7534 130° Southeast 549 632 41,000  Level FlightAware ADS-B
01:57PM 38.2132 -123.6255 130° Southeast 550 633 41,000  Level FlightAware ADS-B
01:58PM 38.1491 -123.5292 130° Southeast 547 629 41,000  Level FlightAware ADS-B
01:58PM 38.0815 -123.4281 130° Southeast 545 627 41,000  Level FlightAware ADS-B
01:59PM 38.0156 -123.3298 130° Southeast 544 626 41,000  Level FlightAware ADS-B
02:00PM 37.9532 -123.2371 130° Southeast 545 627 41,000  Level FlightAware ADS-B
02:00PM 37.8862 -123.1377 130° Southeast 545 627 41,000  Level FlightAware ADS-B
02:01PM 37.8334 -123.0597 131° Southeast 547 629 41,000  Level FlightAware ADS-B (KHWD)
02:01PM 37.7752 -122.9739 131° Southeast 548 631 41,000  Level FlightAware ADS-B (KHWD)
02:02PM 37.7278 -122.9039 131° Southeast 548 631 41,000  Level FlightAware ADS-B (KHWD)
02:03PM 37.6538 -122.7954 130° Southeast 548 631 41,000  Level FlightAware ADS-B
02:03PM 37.6373 -122.7712 131° Southeast 548 631 41,000  Level FlightAware ADS-B (KHWD)
02:04PM 37.5119 -122.5880 131° Southeast 548 631 41,000  Level FlightAware ADS-B (KHWD)
02:04PM 37.4635 -122.5180 131° Southeast 549 632 41,000  Level FlightAware ADS-B
02:05PM 37.4307 -122.4699 131° Southeast 549 632 41,000  Level FlightAware ADS-B (KHWD)
02:05PM 37.4104 -122.4410 131° Southeast 549 632 41,000  Level FlightAware ADS-B
02:06PM 37.3376 -122.3351 131° Southeast 549 632 41,000  Level FlightAware ADS-B (KHWD)
02:06PM 37.3050 -122.2880 131° Southeast 548 631 41,000  Level FlightAware ADS-B
02:07PM 37.2394 -122.1936 131° Southeast 549 632 41,000  Level FlightAware ADS-B (KHWD)
02:07PM 37.2321 -122.1830 131° Southeast 549 632 41,000  Level FlightAware ADS-B
02:07PM 37.1795 -122.1080 131° Southeast 547 629 41,000  Level FlightAware ADS-B
02:07PM 37.2095 -122.1506 131° Southeast 547 629 41,000  Level FlightAware ADS-B (KHWD)
02:08PM 37.1283 -122.0340 131° Southeast 547 629 41,000  Level FlightAware ADS-B
02:08PM 37.1157 -122.0160 131° Southeast 547 629 41,000  Level FlightAware ADS-B
02:08PM 37.0743 -121.9600 133° Southeast 548 631 41,000  Level FlightAware ADS-B
02:09PM 37.0488 -121.9261 134° Southeast 548 631 41,000  Level FlightAware ADS-B (KHWD)
02:09PM 36.9620 -121.8130 134° Southeast 548 631 41,000  Level FlightAware ADS-B
02:10PM 36.9528 -121.8014 134° Southeast 550 633 41,000  Level FlightAware ADS-B (KHWD)
02:10PM 36.9036 -121.7370 134° Southeast 550 633 41,000  Level FlightAware ADS-B
02:11PM 36.8481 -121.6650 134° Southeast 551 634 41,000  Level FlightAware ADS-B
02:11PM 36.7906 -121.5890 134° Southeast 550 633 41,000  Level FlightAware ADS-B
02:11PM 36.7663 -121.5577 134° Southeast 552 635 41,000  Level FlightAware ADS-B (KHWD)
02:12PM 36.6925 -121.4610 134° Southeast 552 635 41,000  Level FlightAware ADS-B
02:13PM 36.6329 -121.3830 134° Southeast 552 635 41,000  Level FlightAware ADS-B
02:13PM 36.5530 -121.2800 134° Southeast 554 638 41,000  Level FlightAware ADS-B
02:14PM 36.4956 -121.2106 134° Southeast 552 635 41,000  Level Oakland Center
02:20PM 35.8663 -120.4020 134° Southeast 558 642 41,000  Level FlightAware ADS-B
02:21PM 35.7358 -120.2379 134° Southeast 557 641 41,000  Level FlightAware ADS-B
02:21PM 35.6777 -120.1652 134° Southeast 557 641 41,000  Level FlightAware ADS-B
02:22PM 35.5848 -120.0491 134° Southeast 545 627 41,000 -420 Level FlightAware ADS-B
02:23PM 35.5221 -119.9710 135° Southeast 542 624 40,400 -2,160 Descending FlightAware ADS-B
02:24PM 35.4595 -119.8933 135° Southeast 556 640 38,800 -2,700 Descending FlightAware ADS-B
02:25PM 35.3489 -119.7564 134° Southeast 562 647 36,400 -1,980 Descending FlightAware ADS-B
02:25PM 35.2907 -119.6853 137° Southeast 545 627 35,800 -2,220 Descending FlightAware ADS-B
02:26PM 35.1591 -119.5584 145° Southeast 551 634 32,800 -2,580 Descending FlightAware ADS-B
02:27PM 35.0450 -119.4613 145° Southeast 539 620 30,600 -2,160 Descending FlightAware ADS-B
02:28PM 34.9248 -119.3587 145° Southeast 514 592 28,700 -1,920 Descending FlightAware ADS-B
02:29PM 34.8657 -119.3089 145° Southeast 502 578 27,700 -2,100 Descending FlightAware ADS-B
02:29PM 34.7866 -119.2422 145° Southeast 497 572 25,900 -2,160 Descending FlightAware ADS-B
02:30PM 34.6678 -119.1418 145° Southeast 479 551 24,000 -1,920 Descending FlightAware ADS-B
02:31PM 34.5704 -119.0601 145° Southeast 477 549 22,500 -1,980 Descending FlightAware ADS-B
02:32PM 34.4643 -118.9717 145° Southeast 459 528 20,300 -2,460 Descending FlightAware ADS-B
02:33PM 34.3938 -118.9121 145° Southeast 435 501 18,400 -3,120 Descending FlightAware ADS-B
02:34PM 34.3262 -118.8697 160° South 423 487 16,300 -3,540 Descending FlightAware ADS-B
02:35PM 34.2155 -118.8292 163° South 404 465 12,600 -2,580 Descending FlightAware ADS-B
02:35PM 34.1282 -118.7874 145° Southeast 360 414 11,500 -1,380 Descending FlightAware ADS-B
02:36PM 34.0834 -118.7494 145° Southeast 344 396 10,500 -1,500 Descending FlightAware ADS-B
02:36PM 34.0526 -118.7196 128° Southeast 337 388 10,000 -1,260 Descending FlightAware ADS-B
02:37PM 34.0403 -118.6957 114° Southeast 328 377 9,800 -420 Descending FlightAware ADS-B
02:37PM 34.0286 -118.6205 98° East 292 336 9,600 -780 Descending FlightAware ADS-B
02:38PM 34.0207 -118.5509 98° East 292 336 8,700 -1,380 Descending FlightAware ADS-B
02:39PM 34.0169 -118.5164 98° East 293 337 8,200 -1,500 Descending FlightAware ADS-B
02:40PM 34.0154 -118.4184 80° East 279 321 6,700 -1,620 Descending FlightAware ADS-B
02:40PM 34.0229 -118.3620 81° East 269 310 5,500 -1,680 Descending FlightAware ADS-B
02:41PM 34.0306 -118.3054 81° East 251 289 4,600 -1,080 Descending FlightAware ADS-B
02:41PM 34.0352 -118.2724 80° East 226 260 4,400 -660 Descending FlightAware ADS-B
02:42PM 34.0390 -118.2477 79° East 210 242 4,100 -900 Descending FlightAware ADS-B
02:42PM 34.0413 -118.1946 120° Southeast 195 224 3,400 -960 Descending FlightAware ADS-B
02:43PM 34.0096 -118.1777 191° South 190 219 2,700 -1,140 Descending FlightAware ADS-B
02:43PM 33.9945 -118.1876 219° Southwest 189 217 2,300 -1,020 Descending FlightAware ADS-B
02:44PM 33.9675 -118.2164 223° Southwest 186 214 1,700 -720 Descending FlightAware ADS-B
02:44PM 33.9566 -118.2290 231° Southwest 184 212 1,600 -180 Descending FlightAware ADS-B
02:45PM 33.9507 -118.2498 264° West 167 192 1,600  Level FlightAware ADS-B
02:45PM 33.9492 -118.2668 263° West 166 191 1,600 -360 Level FlightAware ADS-B
02:45PM 33.9475 -118.2834 263° West 167 192 1,400 -780 Descending FlightAware ADS-B
02:46PM 33.9456 -118.3019 263° West 154 177 1,100 -780 Descending FlightAware ADS-B
02:46PM 33.9445 -118.3131 263° West 147 169 900 -720 Descending FlightAware ADS-B
02:47PM 33.9420 -118.3375 263° West 148 170 600 -600 Descending FlightAware ADS-B
02:47PM 33.9410 -118.3466 263° West 149 171 500 -960 Descending FlightAware ADS-B
02:47PM 33.9400 -118.3566 277° West 147 169 300 -1,020 Descending FlightAware ADS-B
02:47PM 33.9388 -118.3686 276° West 147 169 100 -120 Descending FlightAware ADS-B
02:48PM 33.9369 -118.3972 276° West 155 178 200 120 Climbing Los Angeles Center